sensor_id;sensor_type;location;lat;lon;timestamp;pressure;altitude;pressure_sealevel;temperature;humidity
35551;BME280;21655;46.056;13.616;2022-10-01T00:00:24;100130.66;;;14.38;100.00
35551;BME280;21655;46.056;13.616;2022-10-01T00:02:52;100129.78;;;14.38;100.00
35551;BME280;21655;46.056;13.616;2022-10-01T00:05:19;100143.31;;;14.41;100.00
35551;BME280;21655;46.056;13.616;2022-10-01T00:07:45;100134.72;;;14.36;100.00
35551;BME280;21655;46.056;13.616;2022-10-01T00:10:12;100137.53;;;14.36;100.00
35551;BME280;21655;46.056;13.616;2022-10-01T00:12:41;100139.03;;;14.38;100.00
35551;BME280;21655;46.056;13.616;2022-10-01T00:15:12;100142.28;;;14.42;100.00
35551;BME280;21655;46.056;13.616;2022-10-01T00:17:38;100126.16;;;14.37;100.00
35551;BME280;21655;46.056;13.616;2022-10-01T00:20:04;100131.75;;;14.37;100.00
35551;BME280;21655;46.056;13.616;2022-10-01T00:22:31;100126.38;;;14.36;100.00
35551;BME280;21655;46.056;13.616;2022-10-01T00:24:58;100139.25;;;14.37;100.00
35551;BME280;21655;46.056;13.616;2022-10-01T00:27:27;100134.31;;;14.39;100.00
35551;BME280;21655;46.056;13.616;2022-10-01T00:29:53;100141.84;;;14.38;100.00
35551;BME280;21655;46.056;13.616;2022-10-01T00:32:22;100139.03;;;14.38;100.00
35551;BME280;21655;46.056;13.616;2022-10-01T00:34:48;100124.66;;;14.41;100.00
35551;BME280;21655;46.056;13.616;2022-10-01T00:37:14;100140.97;;;14.44;100.00
35551;BME280;21655;46.056;13.616;2022-10-01T00:39:39;100135.81;;;14.41;100.00
35551;BME280;21655;46.056;13.616;2022-10-01T00:42:20;100141.19;;;14.36;100.00
35551;BME280;21655;46.056;13.616;2022-10-01T00:44:47;100143.75;;;14.38;100.00
35551;BME280;21655;46.056;13.616;2022-10-01T00:49:45;100139.88;;;14.39;100.00
35551;BME280;21655;46.056;13.616;2022-10-01T00:52:18;100136.69;;;14.42;100.00
35551;BME280;21655;46.056;13.616;2022-10-01T00:54:50;100143.78;;;14.44;100.00
35551;BME280;21655;46.056;13.616;2022-10-01T00:57:20;100147.22;;;14.46;100.00
35551;BME280;21655;46.056;13.616;2022-10-01T00:59:46;100146.78;;;14.43;100.00
35551;BME280;21655;46.056;13.616;2022-10-01T01:02:12;100148.06;;;14.40;100.00
35551;BME280;21655;46.056;13.616;2022-10-01T01:04:39;100144.63;;;14.38;100.00
35551;BME280;21655;46.056;13.616;2022-10-01T01:07:05;100135.19;;;14.39;100.00
35551;BME280;21655;46.056;13.616;2022-10-01T01:09:38;100132.63;;;14.44;100.00
35551;BME280;21655;46.056;13.616;2022-10-01T01:23:28;100134.53;;;14.37;100.00
35551;BME280;21655;46.056;13.616;2022-10-01T01:26:34;100136.44;;;14.37;100.00
35551;BME280;21655;46.056;13.616;2022-10-01T01:28:54;100124.88;;;14.33;100.00
35551;BME280;21655;46.056;13.616;2022-10-01T01:31:34;100116.50;;;14.40;100.00
35551;BME280;21655;46.056;13.616;2022-10-01T01:34:02;100120.16;;;14.40;100.00
35551;BME280;21655;46.056;13.616;2022-10-01T01:36:32;100128.34;;;14.42;100.00
35551;BME280;21655;46.056;13.616;2022-10-01T01:39:04;100123.56;;;14.36;100.00
35551;BME280;21655;46.056;13.616;2022-10-01T01:41:36;100136.03;;;14.40;100.00
35551;BME280;21655;46.056;13.616;2022-10-01T01:44:06;100134.94;;;14.41;100.00
35551;BME280;21655;46.056;13.616;2022-10-01T01:46:35;100119.28;;;14.40;100.00
35551;BME280;21655;46.056;13.616;2022-10-01T01:49:03;100119.09;;;14.41;100.00
35551;BME280;21655;46.056;13.616;2022-10-01T01:54:19;100125.75;;;14.40;100.00
35551;BME280;21655;46.056;13.616;2022-10-01T01:56:45;100130.69;;;14.45;100.00
35551;BME280;21655;46.056;13.616;2022-10-01T01:59:12;100145.50;;;14.45;100.00
35551;BME280;21655;46.056;13.616;2022-10-01T02:01:40;100142.94;;;14.44;100.00
35551;BME280;21655;46.056;13.616;2022-10-01T02:04:18;100149.34;;;14.44;100.00
35551;BME280;21655;46.056;13.616;2022-10-01T02:09:30;100154.94;;;14.44;100.00
35551;BME280;21655;46.056;13.616;2022-10-01T02:14:55;100156.66;;;14.45;100.00
35551;BME280;21655;46.056;13.616;2022-10-01T02:20:28;100149.31;;;14.38;100.00
35551;BME280;21655;46.056;13.616;2022-10-01T02:22:59;100150.41;;;14.37;100.00
35551;BME280;21655;46.056;13.616;2022-10-01T02:25:30;100151.47;;;14.36;100.00
35551;BME280;21655;46.056;13.616;2022-10-01T02:28:11;100160.72;;;14.36;100.00
35551;BME280;21655;46.056;13.616;2022-10-01T02:30:39;100148.06;;;14.40;100.00
35551;BME280;21655;46.056;13.616;2022-10-01T02:33:08;100143.31;;;14.41;100.00
35551;BME280;21655;46.056;13.616;2022-10-01T02:35:36;100145.06;;;14.42;100.00
35551;BME280;21655;46.056;13.616;2022-10-01T02:38:04;100154.06;;;14.37;100.00
35551;BME280;21655;46.056;13.616;2022-10-01T02:40:33;100154.91;;;14.38;100.00
35551;BME280;21655;46.056;13.616;2022-10-01T02:43:07;100155.34;;;14.41;100.00
35551;BME280;21655;46.056;13.616;2022-10-01T02:45:36;100154.47;;;14.41;100.00
35551;BME280;21655;46.056;13.616;2022-10-01T02:48:06;100165.88;;;14.46;100.00
35551;BME280;21655;46.056;13.616;2022-10-01T02:50:50;100172.53;;;14.45;100.00
35551;BME280;21655;46.056;13.616;2022-10-01T02:53:30;100168.03;;;14.44;100.00
35551;BME280;21655;46.056;13.616;2022-10-01T02:56:00;100169.31;;;14.41;100.00
35551;BME280;21655;46.056;13.616;2022-10-01T02:58:28;100166.50;;;14.41;100.00
35551;BME280;21655;46.056;13.616;2022-10-01T03:00:53;100173.81;;;14.42;100.00
35551;BME280;21655;46.056;13.616;2022-10-01T03:03:19;100175.75;;;14.42;100.00
35551;BME280;21655;46.056;13.616;2022-10-01T03:05:44;100166.31;;;14.43;100.00
35551;BME280;21655;46.056;13.616;2022-10-01T03:08:10;100174.25;;;14.46;100.00
35551;BME280;21655;46.056;13.616;2022-10-01T03:10:35;100166.53;;;14.48;100.00
35551;BME280;21655;46.056;13.616;2022-10-01T03:13:00;100162.69;;;14.49;100.00
35551;BME280;21655;46.056;13.616;2022-10-01T03:15:26;100169.75;;;14.45;100.00
35551;BME280;21655;46.056;13.616;2022-10-01T03:17:52;100166.72;;;14.46;100.00
35551;BME280;21655;46.056;13.616;2022-10-01T03:20:19;100166.53;;;14.48;100.00
35551;BME280;21655;46.056;13.616;2022-10-01T03:22:45;100170.16;;;14.48;100.00
35551;BME280;21655;46.056;13.616;2022-10-01T03:25:11;100178.34;;;14.50;100.00
35551;BME280;21655;46.056;13.616;2022-10-01T03:27:36;100172.31;;;14.46;100.00
35551;BME280;21655;46.056;13.616;2022-10-01T03:30:03;100175.97;;;14.47;100.00
35551;BME280;21655;46.056;13.616;2022-10-01T03:32:30;100175.56;;;14.50;100.00
35551;BME280;21655;46.056;13.616;2022-10-01T03:34:55;100175.09;;;14.46;100.00
35551;BME280;21655;46.056;13.616;2022-10-01T03:37:21;100169.75;;;14.45;100.00
35551;BME280;21655;46.056;13.616;2022-10-01T03:39:46;100171.91;;;14.43;100.00
35551;BME280;21655;46.056;13.616;2022-10-01T03:42:11;100165.88;;;14.46;100.00
35551;BME280;21655;46.056;13.616;2022-10-01T03:44:37;100172.13;;;14.48;100.00
35551;BME280;21655;46.056;13.616;2022-10-01T03:47:02;100172.13;;;14.48;100.00
35551;BME280;21655;46.056;13.616;2022-10-01T03:49:28;100168.44;;;14.47;100.00
35551;BME280;21655;46.056;13.616;2022-10-01T03:51:53;100167.81;;;14.45;100.00
35551;BME280;21655;46.056;13.616;2022-10-01T03:54:19;100164.38;;;14.43;100.00
35551;BME280;21655;46.056;13.616;2022-10-01T03:56:45;100162.84;;;14.41;100.00
35551;BME280;21655;46.056;13.616;2022-10-01T03:59:11;100163.91;;;14.40;100.00
35551;BME280;21655;46.056;13.616;2022-10-01T04:01:37;100157.28;;;14.41;100.00
35551;BME280;21655;46.056;13.616;2022-10-01T04:04:03;100168.22;;;14.42;100.00
35551;BME280;21655;46.056;13.616;2022-10-01T04:06:29;100160.31;;;14.46;100.00
35551;BME280;21655;46.056;13.616;2022-10-01T04:08:54;100163.94;;;14.46;100.00
35551;BME280;21655;46.056;13.616;2022-10-01T04:11:20;100155.56;;;14.46;100.00
35551;BME280;21655;46.056;13.616;2022-10-01T04:13:45;100155.81;;;14.45;100.00
35551;BME280;21655;46.056;13.616;2022-10-01T04:16:11;100163.94;;;14.46;100.00
35551;BME280;21655;46.056;13.616;2022-10-01T04:18:37;100159.00;;;14.48;100.00
35551;BME280;21655;46.056;13.616;2022-10-01T04:21:02;100157.28;;;14.47;100.00
35551;BME280;21655;46.056;13.616;2022-10-01T04:23:28;100157.28;;;14.47;100.00
35551;BME280;21655;46.056;13.616;2022-10-01T04:25:53;100160.09;;;14.47;100.00
35551;BME280;21655;46.056;13.616;2022-10-01T04:28:19;100162.47;;;14.50;100.00
35551;BME280;21655;46.056;13.616;2022-10-01T04:30:45;100155.81;;;14.51;100.00
35551;BME280;21655;46.056;13.616;2022-10-01T04:33:13;100152.59;;;14.54;100.00
35551;BME280;21655;46.056;13.616;2022-10-01T04:35:39;100155.41;;;14.54;100.00
35551;BME280;21655;46.056;13.616;2022-10-01T04:38:14;100148.50;;;14.57;100.00
35551;BME280;21655;46.056;13.616;2022-10-01T04:40:40;100153.25;;;14.56;100.00
35551;BME280;21655;46.056;13.616;2022-10-01T04:43:06;100144.66;;;14.51;100.00
35551;BME280;21655;46.056;13.616;2022-10-01T04:45:37;100148.94;;;14.54;100.00
35551;BME280;21655;46.056;13.616;2022-10-01T04:48:03;100148.94;;;14.54;100.00
35551;BME280;21655;46.056;13.616;2022-10-01T04:50:29;100149.38;;;14.51;100.00
35551;BME280;21655;46.056;13.616;2022-10-01T04:52:55;100155.81;;;14.45;100.00
35551;BME280;21655;46.056;13.616;2022-10-01T04:55:21;100152.56;;;14.41;100.00
35551;BME280;21655;46.056;13.616;2022-10-01T04:57:47;100155.56;;;14.40;100.00
35551;BME280;21655;46.056;13.616;2022-10-01T05:00:16;100156.44;;;14.40;100.00
35551;BME280;21655;46.056;13.616;2022-10-01T05:02:46;100161.13;;;14.40;100.00
35551;BME280;21655;46.056;13.616;2022-10-01T05:05:13;100159.03;;;14.42;100.00
35551;BME280;21655;46.056;13.616;2022-10-01T05:07:39;100165.44;;;14.42;100.00
35551;BME280;21655;46.056;13.616;2022-10-01T05:10:09;100168.22;;;14.42;100.00
35551;BME280;21655;46.056;13.616;2022-10-01T05:12:36;100166.09;;;14.44;100.00
35551;BME280;21655;46.056;13.616;2022-10-01T05:15:01;100171.03;;;14.42;100.00
35551;BME280;21655;46.056;13.616;2022-10-01T05:17:27;100179.19;;;14.44;100.00
35551;BME280;21655;46.056;13.616;2022-10-01T05:19:52;100182.63;;;14.46;100.00
35551;BME280;21655;46.056;13.616;2022-10-01T05:22:18;100183.06;;;14.49;100.00
35551;BME280;21655;46.056;13.616;2022-10-01T05:24:44;100189.09;;;14.53;100.00
35551;BME280;21655;46.056;13.616;2022-10-01T05:27:10;100187.59;;;14.57;100.00
35551;BME280;21655;46.056;13.616;2022-10-01T05:29:39;100188.91;;;14.61;100.00
35551;BME280;21655;46.056;13.616;2022-10-01T05:32:06;100180.72;;;14.59;100.00
35551;BME280;21655;46.056;13.616;2022-10-01T05:34:31;100184.16;;;14.61;100.00
35551;BME280;21655;46.056;13.616;2022-10-01T05:36:57;100184.16;;;14.61;100.00
35551;BME280;21655;46.056;13.616;2022-10-01T05:39:22;100167.66;;;14.60;100.00
35551;BME280;21655;46.056;13.616;2022-10-01T05:41:48;100173.63;;;14.57;100.00
35551;BME280;21655;46.056;13.616;2022-10-01T05:44:13;100172.16;;;14.61;100.00
35551;BME280;21655;46.056;13.616;2022-10-01T05:46:39;100176.41;;;14.57;100.00
35551;BME280;21655;46.056;13.616;2022-10-01T05:49:04;100173.88;;;14.55;100.00
35551;BME280;21655;46.056;13.616;2022-10-01T05:51:31;100171.53;;;14.59;100.00
35551;BME280;21655;46.056;13.616;2022-10-01T05:53:57;100180.94;;;14.58;100.00
35551;BME280;21655;46.056;13.616;2022-10-01T05:56:24;100164.88;;;14.60;100.00
35551;BME280;21655;46.056;13.616;2022-10-01T05:58:50;100194.09;;;14.70;100.00
35551;BME280;21655;46.056;13.616;2022-10-01T06:01:15;100188.06;;;14.73;100.00
35551;BME280;21655;46.056;13.616;2022-10-01T06:03:41;100197.75;;;14.84;100.00
35551;BME280;21655;46.056;13.616;2022-10-01T06:06:07;100188.53;;;14.90;100.00
35551;BME280;21655;46.056;13.616;2022-10-01T06:08:36;100188.72;;;14.82;100.00
35551;BME280;21655;46.056;13.616;2022-10-01T06:11:02;100198.84;;;14.89;100.00
35551;BME280;21655;46.056;13.616;2022-10-01T06:13:29;100191.13;;;14.91;100.00
35551;BME280;21655;46.056;13.616;2022-10-01T06:15:55;100190.25;;;14.97;100.00
35551;BME280;21655;46.056;13.616;2022-10-01T06:18:20;100196.50;;;14.99;100.00
35551;BME280;21655;46.056;13.616;2022-10-01T06:20:46;100197.34;;;15.00;100.00
35551;BME280;21655;46.056;13.616;2022-10-01T06:23:12;100197.56;;;14.98;100.00
35551;BME280;21655;46.056;13.616;2022-10-01T06:25:40;100200.34;;;15.04;100.00
35551;BME280;21655;46.056;13.616;2022-10-01T06:28:07;100204.69;;;15.13;100.00
35551;BME280;21655;46.056;13.616;2022-10-01T06:30:35;100212.44;;;15.18;100.00
35551;BME280;21655;46.056;13.616;2022-10-01T06:33:06;100207.25;;;15.15;100.00
35551;BME280;21655;46.056;13.616;2022-10-01T06:35:33;100211.97;;;15.14;100.00
35551;BME280;21655;46.056;13.616;2022-10-01T06:37:59;100208.13;;;15.15;100.00
35551;BME280;21655;46.056;13.616;2022-10-01T06:40:30;100218.41;;;15.15;100.00
35551;BME280;21655;46.056;13.616;2022-10-01T06:42:56;100220.16;;;15.16;100.00
35551;BME280;21655;46.056;13.616;2022-10-01T06:45:23;100236.94;;;15.16;100.00
35551;BME280;21655;46.056;13.616;2022-10-01T06:47:53;100242.72;;;15.14;100.00
35551;BME280;21655;46.056;13.616;2022-10-01T06:50:19;100230.66;;;15.14;100.00
35551;BME280;21655;46.056;13.616;2022-10-01T06:52:44;100237.56;;;15.11;100.00
35551;BME280;21655;46.056;13.616;2022-10-01T06:55:13;100245.94;;;15.11;100.00
35551;BME280;21655;46.056;13.616;2022-10-01T06:57:39;100245.94;;;15.11;100.00
35551;BME280;21655;46.056;13.616;2022-10-01T07:00:05;100255.38;;;15.23;100.00
35551;BME280;21655;46.056;13.616;2022-10-01T07:02:30;100255.22;;;15.31;100.00
35551;BME280;21655;46.056;13.616;2022-10-01T07:04:56;100253.53;;;15.37;100.00
35551;BME280;21655;46.056;13.616;2022-10-01T07:07:29;100255.66;;;15.35;100.00
35551;BME280;21655;46.056;13.616;2022-10-01T07:09:56;100249.22;;;15.34;100.00
35551;BME280;21655;46.056;13.616;2022-10-01T07:12:21;100256.75;;;15.34;100.00
35551;BME280;21655;46.056;13.616;2022-10-01T07:14:47;100261.25;;;15.35;100.00
35551;BME280;21655;46.056;13.616;2022-10-01T07:17:12;100262.53;;;15.39;100.00
35551;BME280;21655;46.056;13.616;2022-10-01T07:19:38;100263.38;;;15.39;100.00
35551;BME280;21655;46.056;13.616;2022-10-01T07:22:03;100265.34;;;15.39;100.00
35551;BME280;21655;46.056;13.616;2022-10-01T07:24:29;100275.00;;;15.36;100.00
35551;BME280;21655;46.056;13.616;2022-10-01T07:26:54;100280.56;;;15.30;100.00
35551;BME280;21655;46.056;13.616;2022-10-01T07:29:21;100273.47;;;15.27;100.00
35551;BME280;21655;46.056;13.616;2022-10-01T07:31:49;100272.81;;;15.25;100.00
35551;BME280;21655;46.056;13.616;2022-10-01T07:34:14;100272.19;;;15.30;100.00
35551;BME280;21655;46.056;13.616;2022-10-01T07:36:40;100275.44;;;15.33;100.00
35551;BME280;21655;46.056;13.616;2022-10-01T07:39:08;100278.66;;;15.30;100.00
35551;BME280;21655;46.056;13.616;2022-10-01T07:41:33;100281.91;;;15.34;100.00
35551;BME280;21655;46.056;13.616;2022-10-01T07:43:59;100284.47;;;15.35;100.00
35551;BME280;21655;46.056;13.616;2022-10-01T07:46:27;100286.59;;;15.33;100.00
35551;BME280;21655;46.056;13.616;2022-10-01T07:48:53;100290.03;;;15.29;100.00
35551;BME280;21655;46.056;13.616;2022-10-01T07:51:18;100291.06;;;15.28;100.00
35551;BME280;21655;46.056;13.616;2022-10-01T07:53:44;100295.63;;;15.35;100.00
35551;BME280;21655;46.056;13.616;2022-10-01T07:56:09;100296.72;;;15.47;100.00
35551;BME280;21655;46.056;13.616;2022-10-01T07:58:35;100300.63;;;15.53;100.00
35551;BME280;21655;46.056;13.616;2022-10-01T08:01:03;100301.03;;;15.63;100.00
35551;BME280;21655;46.056;13.616;2022-10-01T08:03:29;100306.63;;;15.76;100.00
35551;BME280;21655;46.056;13.616;2022-10-01T08:05:54;100311.59;;;15.80;100.00
35551;BME280;21655;46.056;13.616;2022-10-01T08:08:21;100306.84;;;15.81;100.00
35551;BME280;21655;46.056;13.616;2022-10-01T08:10:46;100312.44;;;15.87;100.00
35551;BME280;21655;46.056;13.616;2022-10-01T08:13:16;100314.78;;;15.97;100.00
35551;BME280;21655;46.056;13.616;2022-10-01T08:15:46;100322.09;;;15.98;100.00
35551;BME280;21655;46.056;13.616;2022-10-01T08:18:14;100324.91;;;16.04;100.00
35551;BME280;21655;46.056;13.616;2022-10-01T08:20:41;100326.41;;;16.07;100.00
35551;BME280;21655;46.056;13.616;2022-10-01T08:23:12;100324.91;;;16.04;100.00
35551;BME280;21655;46.056;13.616;2022-10-01T08:25:39;100329.66;;;16.10;100.00
35551;BME280;21655;46.056;13.616;2022-10-01T08:28:06;100320.81;;;16.13;100.00
35551;BME280;21655;46.056;13.616;2022-10-01T08:30:33;100331.81;;;16.15;100.00
35551;BME280;21655;46.056;13.616;2022-10-01T08:33:00;100333.28;;;16.17;100.00
35551;BME280;21655;46.056;13.616;2022-10-01T08:35:28;100333.28;;;16.17;100.00
35551;BME280;21655;46.056;13.616;2022-10-01T08:37:54;100341.03;;;16.22;100.00
35551;BME280;21655;46.056;13.616;2022-10-01T08:40:21;100346.44;;;16.17;100.00
35551;BME280;21655;46.056;13.616;2022-10-01T08:42:58;100346.19;;;16.18;100.00
35551;BME280;21655;46.056;13.616;2022-10-01T08:45:39;100351.59;;;16.26;100.00
35551;BME280;21655;46.056;13.616;2022-10-01T08:50:54;100359.34;;;16.18;100.00
35551;BME280;21655;46.056;13.616;2022-10-01T08:53:34;100365.16;;;16.16;100.00
35551;BME280;21655;46.056;13.616;2022-10-01T08:56:02;100367.94;;;16.23;100.00
35551;BME280;21655;46.056;13.616;2022-10-01T08:58:37;100365.56;;;16.33;100.00
35551;BME280;21655;46.056;13.616;2022-10-01T09:01:09;100379.34;;;16.47;100.00
35551;BME280;21655;46.056;13.616;2022-10-01T09:03:35;100373.31;;;16.57;100.00
35551;BME280;21655;46.056;13.616;2022-10-01T09:06:17;100379.53;;;16.72;100.00
35551;BME280;21655;46.056;13.616;2022-10-01T09:09:03;100373.19;;;16.96;100.00
35551;BME280;21655;46.056;13.616;2022-10-01T09:14:25;100372.78;;;17.42;100.00
35551;BME280;21655;46.056;13.616;2022-10-01T09:17:18;100368.41;;;17.53;100.00
35551;BME280;21655;46.056;13.616;2022-10-01T09:20:20;100368.19;;;17.54;100.00
35551;BME280;21655;46.056;13.616;2022-10-01T09:25:21;100353.19;;;17.73;100.00
35551;BME280;21655;46.056;13.616;2022-10-01T09:27:47;100355.03;;;17.86;100.00
35551;BME280;21655;46.056;13.616;2022-10-01T09:30:16;100358.50;;;18.12;100.00
35551;BME280;21655;46.056;13.616;2022-10-01T09:33:02;100357.28;;;18.26;100.00
35551;BME280;21655;46.056;13.616;2022-10-01T09:35:39;100354.06;;;18.29;100.00
35551;BME280;21655;46.056;13.616;2022-10-01T09:40:51;100350.91;;;18.13;100.00
35551;BME280;21655;46.056;13.616;2022-10-01T09:43:17;100352.88;;;18.12;100.00
35551;BME280;21655;46.056;13.616;2022-10-01T09:45:48;100350.91;;;18.13;100.00
35551;BME280;21655;46.056;13.616;2022-10-01T09:53:56;100351.34;;;18.16;100.00
35551;BME280;21655;46.056;13.616;2022-10-01T09:56:59;100352.38;;;18.22;100.00
35551;BME280;21655;46.056;13.616;2022-10-01T09:59:30;100359.84;;;18.03;100.00
35551;BME280;21655;46.056;13.616;2022-10-01T10:02:00;100350.44;;;17.91;100.00
35551;BME280;21655;46.056;13.616;2022-10-01T10:04:26;100340.00;;;18.05;100.00
35551;BME280;21655;46.056;13.616;2022-10-01T10:07:00;100340.56;;;18.80;100.00
35551;BME280;21655;46.056;13.616;2022-10-01T10:09:29;100337.31;;;19.89;100.00
35551;BME280;21655;46.056;13.616;2022-10-01T10:11:57;100319.97;;;21.74;100.00
35551;BME280;21655;46.056;13.616;2022-10-01T10:14:43;100323.50;;;21.81;100.00
35551;BME280;21655;46.056;13.616;2022-10-01T10:17:13;100328.88;;;21.55;100.00
35551;BME280;21655;46.056;13.616;2022-10-01T10:19:48;100343.59;;;21.17;100.00
35551;BME280;21655;46.056;13.616;2022-10-01T10:22:26;100333.38;;;20.66;100.00
35551;BME280;21655;46.056;13.616;2022-10-01T10:24:53;100347.09;;;19.98;100.00
35551;BME280;21655;46.056;13.616;2022-10-01T10:27:22;100352.16;;;19.67;100.00
35551;BME280;21655;46.056;13.616;2022-10-01T10:30:00;100345.97;;;19.76;100.00
35551;BME280;21655;46.056;13.616;2022-10-01T10:32:27;100347.56;;;19.84;100.00
35551;BME280;21655;46.056;13.616;2022-10-01T10:34:55;100339.78;;;19.56;100.00
35551;BME280;21655;46.056;13.616;2022-10-01T10:37:27;100342.50;;;19.63;100.00
35551;BME280;21655;46.056;13.616;2022-10-01T10:39:54;100341.78;;;20.08;100.00
35551;BME280;21655;46.056;13.616;2022-10-01T10:42:20;100346.75;;;19.95;100.00
35551;BME280;21655;46.056;13.616;2022-10-01T10:45:00;100348.47;;;19.66;100.00
35551;BME280;21655;46.056;13.616;2022-10-01T10:47:27;100342.78;;;19.43;100.00
35551;BME280;21655;46.056;13.616;2022-10-01T10:50:02;100353.44;;;19.05;100.00
35551;BME280;21655;46.056;13.616;2022-10-01T10:52:33;100359.13;;;18.81;100.00
35551;BME280;21655;46.056;13.616;2022-10-01T10:55:17;100353.09;;;18.78;100.00
35551;BME280;21655;46.056;13.616;2022-10-01T10:57:44;100360.03;;;18.93;100.00
35551;BME280;21655;46.056;13.616;2022-10-01T11:00:17;100351.06;;;19.38;100.00
35551;BME280;21655;46.056;13.616;2022-10-01T11:03:04;100331.59;;;19.96;100.00
35551;BME280;21655;46.056;13.616;2022-10-01T11:05:31;100331.03;;;20.28;100.00
35551;BME280;21655;46.056;13.616;2022-10-01T11:08:10;100337.19;;;20.60;100.00
35551;BME280;21655;46.056;13.616;2022-10-01T11:18:50;100305.50;;;23.24;100.00
35551;BME280;21655;46.056;13.616;2022-10-01T11:21:49;100310.34;;;23.76;96.44
35551;BME280;21655;46.056;13.616;2022-10-01T11:26:57;100290.09;;;23.63;98.31
35551;BME280;21655;46.056;13.616;2022-10-01T11:34:54;100280.94;;;22.70;100.00
35551;BME280;21655;46.056;13.616;2022-10-01T11:37:51;100275.16;;;22.60;100.00
35551;BME280;21655;46.056;13.616;2022-10-01T11:40:27;100280.28;;;22.63;100.00
35551;BME280;21655;46.056;13.616;2022-10-01T11:42:57;100284.31;;;22.01;100.00
35551;BME280;21655;46.056;13.616;2022-10-01T11:45:27;100278.91;;;21.39;100.00
35551;BME280;21655;46.056;13.616;2022-10-01T11:48:27;100274.06;;;21.51;100.00
35551;BME280;21655;46.056;13.616;2022-10-01T11:50:59;100278.81;;;20.95;100.00
35551;BME280;21655;46.056;13.616;2022-10-01T11:53:37;100278.75;;;20.55;100.00
35551;BME280;21655;46.056;13.616;2022-10-01T11:56:20;100275.69;;;20.34;100.00
35551;BME280;21655;46.056;13.616;2022-10-01T11:59:53;100289.03;;;20.50;100.00
35551;BME280;21655;46.056;13.616;2022-10-01T12:02:29;100284.22;;;20.73;100.00
35551;BME280;21655;46.056;13.616;2022-10-01T12:05:11;100270.56;;;21.60;100.00
35551;BME280;21655;46.056;13.616;2022-10-01T12:13:05;100245.69;;;22.56;100.00
35551;BME280;21655;46.056;13.616;2022-10-01T12:15:48;100232.63;;;22.72;100.00
35551;BME280;21655;46.056;13.616;2022-10-01T12:18:23;100230.47;;;22.41;100.00
35551;BME280;21655;46.056;13.616;2022-10-01T12:20:54;100230.84;;;22.11;100.00
35551;BME280;21655;46.056;13.616;2022-10-01T12:23:26;100229.03;;;21.72;100.00
35551;BME280;21655;46.056;13.616;2022-10-01T12:28:37;100227.19;;;21.50;100.00
35551;BME280;21655;46.056;13.616;2022-10-01T12:34:20;100199.44;;;21.30;100.00
35551;BME280;21655;46.056;13.616;2022-10-01T12:37:00;100192.47;;;21.49;100.00
35551;BME280;21655;46.056;13.616;2022-10-01T12:39:56;100187.28;;;21.74;100.00
35551;BME280;21655;46.056;13.616;2022-10-01T12:47:58;100177.91;;;21.69;100.00
35551;BME280;21655;46.056;13.616;2022-10-01T12:53:22;100192.25;;;21.23;100.00
35551;BME280;21655;46.056;13.616;2022-10-01T12:59:09;100187.97;;;21.20;100.00
35551;BME280;21655;46.056;13.616;2022-10-01T13:13:03;100212.75;;;19.94;100.00
35551;BME280;21655;46.056;13.616;2022-10-01T13:15:35;100219.94;;;19.90;100.00
35551;BME280;21655;46.056;13.616;2022-10-01T13:18:33;100210.66;;;19.89;100.00
35551;BME280;21655;46.056;13.616;2022-10-01T13:23:42;100215.28;;;19.84;100.00
35551;BME280;21655;46.056;13.616;2022-10-01T13:32:00;100214.69;;;19.93;100.00
35551;BME280;21655;46.056;13.616;2022-10-01T13:37:14;100214.41;;;19.83;100.00
35551;BME280;21655;46.056;13.616;2022-10-01T13:39:39;100209.88;;;19.82;100.00
35551;BME280;21655;46.056;13.616;2022-10-01T13:42:13;100204.41;;;19.87;100.00
35551;BME280;21655;46.056;13.616;2022-10-01T13:44:41;100215.06;;;19.97;100.00
35551;BME280;21655;46.056;13.616;2022-10-01T13:47:07;100221.53;;;19.86;100.00
35551;BME280;21655;46.056;13.616;2022-10-01T13:49:35;100219.44;;;19.81;100.00
35551;BME280;21655;46.056;13.616;2022-10-01T13:52:02;100231.69;;;19.75;100.00
35551;BME280;21655;46.056;13.616;2022-10-01T13:57:59;100220.91;;;19.61;100.00
35551;BME280;21655;46.056;13.616;2022-10-01T14:02:58;100222.94;;;19.42;100.00
35551;BME280;21655;46.056;13.616;2022-10-01T14:05:41;100211.44;;;19.44;100.00
35551;BME280;21655;46.056;13.616;2022-10-01T14:08:15;100213.94;;;19.22;100.00
35551;BME280;21655;46.056;13.616;2022-10-01T14:11:08;100218.16;;;19.13;100.00
35551;BME280;21655;46.056;13.616;2022-10-01T14:13:55;100220.78;;;18.97;100.00
35551;BME280;21655;46.056;13.616;2022-10-01T14:16:43;100228.28;;;18.85;100.00
35551;BME280;21655;46.056;13.616;2022-10-01T14:19:16;100219.25;;;18.83;100.00
35551;BME280;21655;46.056;13.616;2022-10-01T14:24:48;100218.94;;;18.73;100.00
35551;BME280;21655;46.056;13.616;2022-10-01T14:27:29;100209.50;;;18.68;100.00
35551;BME280;21655;46.056;13.616;2022-10-01T14:35:30;100212.03;;;18.58;100.00
35551;BME280;21655;46.056;13.616;2022-10-01T14:38:03;100205.06;;;18.60;100.00
35551;BME280;21655;46.056;13.616;2022-10-01T14:40:40;100204.63;;;18.63;100.00
35551;BME280;21655;46.056;13.616;2022-10-01T14:43:29;100211.34;;;18.62;100.00